createdAt,value
2023-11-22T00:01:13.557Z,12.33
2023-11-22T00:03:41.856Z,12.27
2023-11-22T00:06:10.017Z,13.07
2023-11-22T00:08:38.363Z,12.20
2023-11-22T00:11:08.080Z,12.03
2023-11-22T00:13:36.339Z,12.00
2023-11-22T00:16:04.868Z,12.10
2023-11-22T00:18:33.174Z,12.13
2023-11-22T00:21:01.343Z,11.93
2023-11-22T00:23:31.248Z,12.37
2023-11-22T00:26:00.011Z,12.13
2023-11-22T00:28:29.597Z,12.10
2023-11-22T00:30:57.800Z,11.97
2023-11-22T00:33:26.550Z,11.97
2023-11-22T00:35:58.091Z,11.60
2023-11-22T00:38:26.646Z,11.33
2023-11-22T00:40:54.972Z,11.77
2023-11-22T00:43:23.136Z,11.83
2023-11-22T00:45:52.734Z,12.10
2023-11-22T00:48:20.954Z,12.07
2023-11-22T00:50:49.126Z,11.17
2023-11-22T00:53:18.276Z,12.10
2023-11-22T00:55:46.501Z,11.60
2023-11-22T00:58:14.735Z,11.87
2023-11-22T01:00:42.898Z,11.57
2023-11-22T01:03:13.484Z,11.20
2023-11-22T01:05:43.723Z,11.80
2023-11-22T01:08:11.995Z,13.20
2023-11-22T01:10:40.181Z,12.83
2023-11-22T01:13:08.510Z,12.47
2023-11-22T01:15:36.707Z,13.27
2023-11-22T01:18:05.356Z,13.90
2023-11-22T01:20:35.061Z,12.60
2023-11-22T01:23:03.345Z,13.43
2023-11-22T01:25:31.599Z,13.33
2023-11-22T01:27:59.852Z,13.13
2023-11-22T01:30:29.744Z,14.20
2023-11-22T01:32:58.349Z,13.80
2023-11-22T01:35:26.839Z,13.73
2023-11-22T01:37:57.534Z,13.27
2023-11-22T01:40:27.420Z,13.70
2023-11-22T01:42:56.350Z,13.67
2023-11-22T01:45:24.647Z,13.40
2023-11-22T01:47:53.874Z,13.17
2023-11-22T01:50:22.397Z,13.77
2023-11-22T01:52:51.191Z,14.47
2023-11-22T01:55:20.977Z,13.73
2023-11-22T01:57:49.229Z,15.03
2023-11-22T02:00:18.028Z,14.47
2023-11-22T02:02:46.568Z,15.50
2023-11-22T02:05:15.368Z,16.27
2023-11-22T02:07:43.860Z,15.37
2023-11-22T02:10:12.084Z,16.10
2023-11-22T02:12:41.628Z,15.07
2023-11-22T02:15:10.635Z,15.67
2023-11-22T02:17:39.199Z,15.43
2023-11-22T02:20:10.964Z,15.60
2023-11-22T02:22:46.132Z,16.33
2023-11-22T02:25:17.198Z,15.17
2023-11-22T02:27:45.469Z,15.70
2023-11-22T02:30:14.075Z,15.77
2023-11-22T02:32:42.266Z,15.63
2023-11-22T02:35:10.812Z,16.30
2023-11-22T02:37:39.147Z,15.20
2023-11-22T02:40:12.216Z,15.23
2023-11-22T02:42:41.845Z,15.90
2023-11-22T02:45:11.088Z,15.13
2023-11-22T02:47:39.419Z,15.63
2023-11-22T02:50:08.568Z,15.43
2023-11-22T02:52:37.031Z,16.23
2023-11-22T02:55:05.970Z,15.83
2023-11-22T02:57:34.202Z,17.03
2023-11-22T03:00:05.415Z,17.73
2023-11-22T03:02:34.380Z,15.67
2023-11-22T03:05:02.944Z,16.73
2023-11-22T03:07:31.806Z,15.70
2023-11-22T03:10:02.113Z,15.63
2023-11-22T03:12:30.382Z,15.43
2023-11-22T03:15:01.525Z,16.70
2023-11-22T03:17:31.638Z,16.00
2023-11-22T03:20:00.383Z,16.27
2023-11-22T03:22:31.164Z,17.30
2023-11-22T03:25:01.186Z,17.10
2023-11-22T03:27:29.435Z,17.37
2023-11-22T03:29:57.842Z,16.83
2023-11-22T03:32:26.163Z,18.07
2023-11-22T03:34:55.863Z,18.97
2023-11-22T03:37:24.102Z,17.80
2023-11-22T03:39:52.412Z,19.63
2023-11-22T03:42:20.673Z,17.70
2023-11-22T03:44:48.844Z,19.37
2023-11-22T03:47:17.933Z,18.67
2023-11-22T03:49:46.207Z,16.63
2023-11-22T03:52:16.191Z,18.37
2023-11-22T03:54:44.402Z,18.17
2023-11-22T03:57:12.646Z,17.93
2023-11-22T03:59:44.251Z,17.03
2023-11-22T04:02:12.535Z,18.53
2023-11-22T04:04:42.316Z,17.73
2023-11-22T04:07:10.721Z,17.57
2023-11-22T04:09:40.396Z,19.10
2023-11-22T04:12:09.221Z,17.87
2023-11-22T04:14:37.685Z,18.27
2023-11-22T04:17:07.769Z,18.67
2023-11-22T04:19:36.422Z,19.80
2023-11-22T04:22:04.970Z,18.47
2023-11-22T04:24:33.245Z,18.43
2023-11-22T04:27:02.903Z,18.20
2023-11-22T04:29:31.226Z,18.70
2023-11-22T04:31:59.401Z,17.47
2023-11-22T04:34:27.690Z,17.33
2023-11-22T04:36:55.881Z,17.13
2023-11-22T04:39:23.111Z,17.63
2023-11-22T04:41:52.118Z,17.57
2023-11-22T04:44:21.794Z,17.63
2023-11-22T04:46:50.026Z,19.70
2023-11-22T04:49:18.178Z,19.57
2023-11-22T04:51:46.874Z,18.83
2023-11-22T04:54:15.110Z,17.70
2023-11-22T04:56:43.335Z,18.93
2023-11-22T04:59:11.815Z,20.10
2023-11-22T05:01:41.539Z,18.93
2023-11-22T05:04:11.456Z,19.17
2023-11-22T05:06:39.678Z,18.97
2023-11-22T05:09:08.020Z,19.17
2023-11-22T05:11:36.360Z,18.17
2023-11-22T05:14:04.663Z,18.50
2023-11-22T05:16:32.844Z,18.27
2023-11-22T05:19:02.539Z,18.13
2023-11-22T05:21:30.686Z,19.33
2023-11-22T05:23:58.971Z,18.67
2023-11-22T05:26:28.071Z,18.17
2023-11-22T05:28:56.338Z,18.37
2023-11-22T05:31:25.259Z,17.00
2023-11-22T05:33:53.459Z,18.27
2023-11-22T05:36:23.151Z,16.80
2023-11-22T05:38:51.580Z,17.70
2023-11-22T05:41:19.938Z,16.57
2023-11-22T05:43:48.226Z,16.67
2023-11-22T05:46:22.483Z,16.10
2023-11-22T05:48:51.860Z,15.53
2023-11-22T05:51:20.353Z,15.93
2023-11-22T05:53:50.126Z,16.23
2023-11-22T05:56:18.440Z,15.70
2023-11-22T05:58:46.818Z,15.17
2023-11-22T06:01:15.168Z,16.10
2023-11-22T06:03:43.479Z,15.90
2023-11-22T06:06:11.867Z,15.63
2023-11-22T06:08:40.137Z,16.37
2023-11-22T06:11:09.821Z,16.13
2023-11-22T06:13:37.982Z,16.80
2023-11-22T06:16:09.158Z,16.17
2023-11-22T06:18:41.396Z,16.63
2023-11-22T06:21:09.919Z,16.60
2023-11-22T06:23:38.382Z,16.27
2023-11-22T06:26:07.455Z,16.33
2023-11-22T06:28:37.471Z,16.87
2023-11-22T06:31:05.654Z,16.87
2023-11-22T06:33:33.945Z,16.33
2023-11-22T06:36:02.203Z,16.23
2023-11-22T06:38:29.568Z,17.57
2023-11-22T06:40:57.877Z,17.63
2023-11-22T06:43:26.156Z,16.87
2023-11-22T06:45:55.680Z,16.30
2023-11-22T06:48:24.034Z,17.20
2023-11-22T06:50:52.792Z,16.60
2023-11-22T06:53:21.790Z,16.23
2023-11-22T06:55:50.041Z,16.03
2023-11-22T06:58:19.037Z,16.50
2023-11-22T07:00:47.271Z,15.33
2023-11-22T07:03:17.629Z,15.63
2023-11-22T07:05:46.301Z,16.03
2023-11-22T07:08:17.786Z,15.40
2023-11-22T07:10:46.447Z,14.93
2023-11-22T07:13:16.408Z,15.23
2023-11-22T07:15:44.647Z,14.90
2023-11-22T07:18:15.200Z,15.30
2023-11-22T07:20:45.020Z,13.93
2023-11-22T07:23:14.650Z,13.77
2023-11-22T07:25:44.748Z,13.33
2023-11-22T07:28:12.900Z,13.00
2023-11-22T07:30:43.008Z,12.53
2023-11-22T07:33:12.061Z,12.90
2023-11-22T07:35:40.510Z,12.33
2023-11-22T07:38:11.967Z,12.80
2023-11-22T07:40:40.605Z,13.17
2023-11-22T07:43:08.798Z,13.20
2023-11-22T07:45:38.304Z,14.17
2023-11-22T07:48:06.947Z,14.10
2023-11-22T07:50:35.207Z,12.53
2023-11-22T07:53:03.957Z,12.40
2023-11-22T07:55:34.700Z,13.70
2023-11-22T07:58:06.102Z,14.30
2023-11-22T08:00:35.012Z,12.30
2023-11-22T08:03:03.988Z,13.40
2023-11-22T08:05:35.750Z,13.63
2023-11-22T08:08:07.763Z,13.93
2023-11-22T08:10:37.505Z,13.90
2023-11-22T08:13:05.845Z,13.47
2023-11-22T08:15:34.213Z,13.53
2023-11-22T08:18:02.651Z,14.47
2023-11-22T08:20:32.113Z,14.63
2023-11-22T08:23:01.709Z,15.67
2023-11-22T08:25:30.554Z,13.67
2023-11-22T08:28:01.959Z,12.37
2023-11-22T08:30:33.985Z,13.33
2023-11-22T08:33:02.364Z,13.83
2023-11-22T08:35:30.753Z,13.80
2023-11-22T08:37:59.770Z,13.83
2023-11-22T08:40:27.970Z,14.17
2023-11-22T08:42:56.226Z,13.13
2023-11-22T08:45:25.742Z,12.87
2023-11-22T08:47:54.024Z,13.10
2023-11-22T08:50:22.402Z,13.13
2023-11-22T08:52:53.804Z,12.77
2023-11-22T08:55:23.125Z,13.73
2023-11-22T08:57:52.346Z,12.87
2023-11-22T09:00:23.504Z,12.20
2023-11-22T09:02:53.299Z,11.70
2023-11-22T09:05:22.729Z,12.00
2023-11-22T09:07:52.223Z,11.97
2023-11-22T09:10:22.976Z,12.53
2023-11-22T09:12:52.593Z,11.13
2023-11-22T09:15:27.544Z,11.60
2023-11-22T09:17:58.312Z,11.40
2023-11-22T09:20:26.763Z,11.90
2023-11-22T09:22:56.481Z,11.23
2023-11-22T09:25:26.215Z,11.90
2023-11-22T09:27:56.767Z,11.67
2023-11-22T09:30:36.043Z,11.33
2023-11-22T09:33:07.108Z,11.10
2023-11-22T09:35:36.346Z,11.03
2023-11-22T09:38:05.970Z,10.97
2023-11-22T09:40:34.301Z,11.83
2023-11-22T09:43:03.622Z,11.50
2023-11-22T09:45:33.995Z,12.47
2023-11-22T09:48:03.539Z,12.47
2023-11-22T09:50:41.869Z,13.13
2023-11-22T09:53:16.650Z,13.10
2023-11-22T09:55:47.901Z,12.20
2023-11-22T09:58:18.356Z,12.23
2023-11-22T10:00:46.709Z,12.77
2023-11-22T10:03:16.097Z,12.57
2023-11-22T10:05:46.227Z,11.53
2023-11-22T10:08:15.479Z,11.47
2023-11-22T10:10:46.705Z,10.60
2023-11-22T10:13:15.907Z,11.07
2023-11-22T10:15:44.157Z,10.93
2023-11-22T10:18:13.290Z,10.63
2023-11-22T10:20:47.614Z,10.37
2023-11-22T10:23:18.817Z,11.43
2023-11-22T10:25:48.772Z,11.13
2023-11-22T10:28:17.434Z,10.30
2023-11-22T10:30:46.173Z,10.73
2023-11-22T10:33:15.860Z,11.63
2023-11-22T10:35:46.661Z,10.80
2023-11-22T10:38:16.559Z,12.17
2023-11-22T10:40:46.137Z,11.47
2023-11-22T10:43:14.844Z,11.07
2023-11-22T10:45:47.339Z,10.93
2023-11-22T10:48:18.130Z,10.37
2023-11-22T10:50:48.061Z,10.60
2023-11-22T10:53:23.633Z,11.67
2023-11-22T10:55:59.679Z,10.87
2023-11-22T10:58:30.195Z,10.20
2023-11-22T11:00:59.413Z,10.07
2023-11-22T11:03:32.932Z,9.80
2023-11-22T11:06:06.339Z,10.47
2023-11-22T11:08:35.230Z,12.77
2023-11-22T11:11:04.704Z,12.53
2023-11-22T11:13:33.630Z,13.53
2023-11-22T11:16:02.321Z,14.63
2023-11-22T11:18:31.242Z,14.30
2023-11-22T11:21:00.425Z,12.30
2023-11-22T11:23:32.750Z,10.73
2023-11-22T11:26:12.588Z,9.60
2023-11-22T11:28:45.415Z,9.10
2023-11-22T11:31:13.660Z,8.90
2023-11-22T11:33:56.940Z,9.10
2023-11-22T11:36:27.205Z,8.80
2023-11-22T11:38:57.959Z,9.70
2023-11-22T11:41:29.178Z,10.30
2023-11-22T11:43:59.283Z,10.63
2023-11-22T11:46:31.930Z,10.83
2023-11-22T11:49:00.725Z,9.90
2023-11-22T11:51:30.428Z,9.40
2023-11-22T11:54:00.079Z,10.33
2023-11-22T11:56:31.120Z,9.90
2023-11-22T11:59:00.875Z,10.20
2023-11-22T12:01:33.707Z,9.53
2023-11-22T12:04:03.929Z,10.27
2023-11-22T12:06:34.686Z,9.90
2023-11-22T12:09:05.110Z,10.27
2023-11-22T12:11:33.503Z,9.47
2023-11-22T12:14:04.733Z,9.57
2023-11-22T12:16:35.213Z,10.00
2023-11-22T12:19:04.027Z,9.70
2023-11-22T12:21:34.340Z,9.63
2023-11-22T12:24:07.321Z,9.30
2023-11-22T12:26:35.620Z,10.83
2023-11-22T12:29:06.533Z,9.17
2023-11-22T12:31:37.450Z,9.47
2023-11-22T12:34:07.646Z,10.80
2023-11-22T12:36:37.291Z,9.60
2023-11-22T12:39:16.803Z,11.97
2023-11-22T12:41:53.121Z,11.40
2023-11-22T12:44:24.662Z,10.47
2023-11-22T12:46:58.893Z,9.87
2023-11-22T12:49:28.444Z,10.67
2023-11-22T12:51:58.105Z,11.17
2023-11-22T12:54:27.925Z,10.50
2023-11-22T12:57:00.306Z,9.30
2023-11-22T12:59:32.224Z,9.37
2023-11-22T13:02:02.312Z,9.67
2023-11-22T13:04:32.461Z,10.13
2023-11-22T13:07:01.783Z,9.67
2023-11-22T13:09:33.534Z,10.00
2023-11-22T13:12:02.124Z,9.33
2023-11-22T13:14:33.521Z,10.30
2023-11-22T13:17:01.834Z,9.30
2023-11-22T13:19:30.453Z,9.93
2023-11-22T13:21:58.653Z,9.63
2023-11-22T13:24:26.916Z,10.17
2023-11-22T13:26:56.578Z,9.67
2023-11-22T13:29:26.590Z,10.47
2023-11-22T13:31:54.790Z,9.90
2023-11-22T13:34:23.036Z,10.67
2023-11-22T13:36:51.257Z,10.60
2023-11-22T13:39:23.325Z,9.93
2023-11-22T13:41:51.856Z,10.90
2023-11-22T13:44:22.029Z,12.83
2023-11-22T13:46:55.704Z,12.70
2023-11-22T13:49:26.950Z,11.17
2023-11-22T13:51:55.216Z,11.23
2023-11-22T13:54:23.457Z,10.17
2023-11-22T13:56:51.747Z,10.37
2023-11-22T13:59:21.566Z,10.07
2023-11-22T14:01:54.786Z,11.00
2023-11-22T14:04:24.264Z,11.07
2023-11-22T14:06:52.476Z,11.53
2023-11-22T14:09:20.997Z,11.37
2023-11-22T14:11:50.308Z,12.40
2023-11-22T14:14:20.443Z,11.57
2023-11-22T14:16:50.318Z,11.90
2023-11-22T14:19:18.515Z,12.43
2023-11-22T14:21:46.916Z,12.77
2023-11-22T14:24:15.089Z,12.20
2023-11-22T14:26:43.314Z,10.93
2023-11-22T14:29:11.457Z,9.67
2023-11-22T14:31:39.827Z,8.70
2023-11-22T14:34:09.484Z,8.90
2023-11-22T14:36:38.239Z,8.10
2023-11-22T14:39:08.413Z,8.10
2023-11-22T14:41:36.746Z,8.60
2023-11-22T14:44:06.020Z,8.43
2023-11-22T14:46:34.229Z,8.03
2023-11-22T14:49:02.479Z,6.97
2023-11-22T14:51:32.230Z,7.60
2023-11-22T14:54:00.425Z,7.87
2023-11-22T14:56:28.807Z,8.00
2023-11-22T14:59:00.334Z,7.37
2023-11-22T15:01:28.579Z,7.53
2023-11-22T15:03:56.795Z,8.10
2023-11-22T15:06:25.447Z,8.63
2023-11-22T15:08:55.093Z,7.80
2023-11-22T15:11:23.218Z,8.00
2023-11-22T15:13:51.974Z,9.20
2023-11-22T15:16:20.247Z,9.00
2023-11-22T15:18:48.567Z,8.40
2023-11-22T15:21:16.708Z,7.77
2023-11-22T15:23:44.951Z,7.60
2023-11-22T15:26:15.198Z,7.93
2023-11-22T15:28:43.413Z,8.10
2023-11-22T15:31:11.672Z,7.50
2023-11-22T15:33:39.970Z,7.17
2023-11-22T15:36:09.480Z,8.13
2023-11-22T15:38:37.848Z,8.70
2023-11-22T15:41:12.539Z,8.00
2023-11-22T15:43:45.997Z,8.10
2023-11-22T15:46:16.049Z,7.43
2023-11-22T15:48:45.378Z,7.97
2023-11-22T15:51:13.958Z,11.00
2023-11-22T15:53:42.530Z,9.53
2023-11-22T15:56:16.250Z,8.97
2023-11-22T15:58:46.913Z,8.13
2023-11-22T16:01:15.592Z,8.07
2023-11-22T16:03:44.239Z,7.93
2023-11-22T16:06:14.390Z,11.10
2023-11-22T16:08:42.849Z,12.13
2023-11-22T16:11:12.577Z,11.27
2023-11-22T16:13:44.667Z,10.67
2023-11-22T16:16:14.285Z,11.80
2023-11-22T16:18:42.715Z,11.47
2023-11-22T16:21:12.335Z,12.10
2023-11-22T16:23:40.607Z,11.13
2023-11-22T16:26:07.849Z,10.60
2023-11-22T16:28:38.071Z,10.17
2023-11-22T16:31:08.311Z,10.73
2023-11-22T16:33:38.336Z,10.40
2023-11-22T16:36:07.088Z,11.43
2023-11-22T16:38:35.918Z,10.73
2023-11-22T16:41:06.518Z,11.30
2023-11-22T16:43:35.703Z,10.90
2023-11-22T16:46:05.560Z,11.30
2023-11-22T16:48:33.964Z,11.27
2023-11-22T16:51:03.732Z,10.67
2023-11-22T16:53:31.966Z,10.33
2023-11-22T16:56:00.117Z,9.60
2023-11-22T16:58:28.361Z,8.67
2023-11-22T17:00:58.177Z,9.33
2023-11-22T17:03:27.258Z,9.00
2023-11-22T17:05:55.690Z,9.13
2023-11-22T17:08:25.492Z,7.70
2023-11-22T17:10:53.782Z,8.70
2023-11-22T17:13:22.151Z,7.90
2023-11-22T17:15:50.305Z,8.33
2023-11-22T17:18:19.873Z,8.77
2023-11-22T17:20:48.152Z,8.40
2023-11-22T17:23:16.671Z,7.50
2023-11-22T17:25:46.283Z,7.50
2023-11-22T17:28:14.726Z,7.27
2023-11-22T17:30:42.887Z,8.20
2023-11-22T17:33:11.112Z,8.33
2023-11-22T17:35:39.445Z,7.57
2023-11-22T17:38:08.311Z,7.77
2023-11-22T17:40:36.526Z,8.20
2023-11-22T17:43:06.124Z,8.70
2023-11-22T17:45:34.994Z,8.23
2023-11-22T17:48:03.474Z,7.83
2023-11-22T17:50:31.836Z,7.60
2023-11-22T17:53:01.347Z,6.97
2023-11-22T17:55:29.838Z,8.00
2023-11-22T17:57:58.083Z,7.70
2023-11-22T18:00:27.685Z,7.23
2023-11-22T18:02:56.022Z,7.13
2023-11-22T18:05:26.149Z,7.73
2023-11-22T18:07:54.446Z,7.50
2023-11-22T18:10:24.443Z,8.43
2023-11-22T18:12:54.080Z,8.43
2023-11-22T18:15:22.782Z,8.57
2023-11-22T18:17:53.847Z,9.23
2023-11-22T18:20:22.324Z,8.83
2023-11-22T18:22:50.464Z,9.20
2023-11-22T18:25:18.658Z,9.53
2023-11-22T18:27:46.899Z,9.70
2023-11-22T18:30:15.583Z,9.93
2023-11-22T18:32:44.368Z,10.50
2023-11-22T18:35:14.798Z,10.10
2023-11-22T18:37:44.137Z,10.57
2023-11-22T18:40:13.332Z,9.83
2023-11-22T18:42:41.821Z,10.30
2023-11-22T18:45:13.427Z,10.30
2023-11-22T18:47:42.228Z,10.57
2023-11-22T18:50:14.417Z,9.80
2023-11-22T18:52:42.708Z,11.20
2023-11-22T18:55:11.927Z,11.00
2023-11-22T18:57:41.645Z,11.17
2023-11-22T19:00:12.209Z,11.57
2023-11-22T19:02:41.860Z,10.83
2023-11-22T19:05:10.894Z,9.63
2023-11-22T19:07:42.733Z,8.70
2023-11-22T19:10:11.861Z,8.90
2023-11-22T19:12:40.064Z,8.33
2023-11-22T19:15:11.997Z,7.87
2023-11-22T19:17:49.241Z,8.03
2023-11-22T19:20:17.948Z,8.57
2023-11-22T19:22:48.395Z,8.40
2023-11-22T19:25:16.964Z,9.97
2023-11-22T19:27:45.444Z,9.93
2023-11-22T19:30:16.892Z,10.10
2023-11-22T19:32:47.003Z,10.30
2023-11-22T19:35:15.423Z,9.60
2023-11-22T19:37:43.794Z,10.47
2023-11-22T19:40:13.878Z,10.33
2023-11-22T19:42:42.098Z,10.30
2023-11-22T19:45:13.127Z,10.97
2023-11-22T19:47:42.537Z,10.47
2023-11-22T19:50:11.353Z,10.50
2023-11-22T19:52:39.627Z,11.70
2023-11-22T19:55:09.219Z,12.97
2023-11-22T19:57:40.060Z,13.23
2023-11-22T20:00:09.742Z,12.90
2023-11-22T20:02:38.315Z,12.47
2023-11-22T20:05:17.093Z,12.17
2023-11-22T20:07:45.451Z,13.00
2023-11-22T20:10:17.051Z,12.63
2023-11-22T20:12:46.975Z,12.33
2023-11-22T20:15:15.345Z,12.63
2023-11-22T20:17:43.598Z,12.83
2023-11-22T20:20:15.429Z,16.30
2023-11-22T20:22:44.315Z,12.53
2023-11-22T20:25:13.374Z,11.90
2023-11-22T20:27:41.670Z,12.33
2023-11-22T20:30:12.536Z,12.23
2023-11-22T20:32:40.889Z,15.80
2023-11-22T20:35:10.194Z,14.67
2023-11-22T20:37:38.759Z,15.03
2023-11-22T20:40:08.526Z,14.23
2023-11-22T20:42:36.980Z,14.87
2023-11-22T20:45:05.928Z,14.57
2023-11-22T20:47:35.996Z,14.27
2023-11-22T20:50:05.712Z,14.80
2023-11-22T20:52:34.432Z,13.43
2023-11-22T20:55:09.318Z,14.03
2023-11-22T20:57:38.732Z,12.67
2023-11-22T21:00:11.321Z,13.77
2023-11-22T21:02:41.669Z,12.90
2023-11-22T21:05:10.836Z,13.30
2023-11-22T21:07:39.375Z,12.63
2023-11-22T21:10:08.587Z,12.87
2023-11-22T21:12:36.908Z,13.03
2023-11-22T21:15:08.302Z,12.83
2023-11-22T21:17:47.087Z,12.17
2023-11-22T21:20:16.631Z,12.60
2023-11-22T21:22:44.867Z,12.60
2023-11-22T21:25:13.313Z,29.60
2023-11-22T21:27:44.355Z,21.60
2023-11-22T21:30:13.768Z,17.67
2023-11-22T21:32:43.664Z,15.60
2023-11-22T21:35:13.658Z,14.93
2023-11-22T21:37:43.132Z,15.20
2023-11-22T21:40:14.209Z,15.23
2023-11-22T21:42:42.731Z,14.87
2023-11-22T21:45:13.076Z,13.60
2023-11-22T21:47:41.778Z,12.93
2023-11-22T21:50:14.056Z,12.03
2023-11-22T21:52:43.728Z,13.50
2023-11-22T21:55:13.080Z,13.27
2023-11-22T21:57:41.388Z,13.53
2023-11-22T22:00:12.281Z,11.97
2023-11-22T22:02:41.595Z,12.77
2023-11-22T22:05:14.100Z,13.87
2023-11-22T22:07:42.315Z,14.33
2023-11-22T22:10:11.347Z,14.00
2023-11-22T22:12:39.790Z,13.93
2023-11-22T22:15:12.141Z,14.63
2023-11-22T22:17:41.280Z,14.30
2023-11-22T22:20:13.013Z,14.50
2023-11-22T22:22:41.774Z,15.33
2023-11-22T22:25:10.591Z,15.73
2023-11-22T22:27:38.821Z,15.63
2023-11-22T22:30:07.948Z,15.53
2023-11-22T22:32:37.023Z,14.60
2023-11-22T22:35:05.892Z,14.90
2023-11-22T22:37:37.122Z,14.40
2023-11-22T22:40:06.093Z,14.37
2023-11-22T22:42:34.252Z,13.60
2023-11-22T22:45:02.603Z,13.27
2023-11-22T22:47:30.890Z,13.00
2023-11-22T22:49:59.504Z,14.37
2023-11-22T22:52:29.095Z,13.57
2023-11-22T22:54:58.802Z,13.87
2023-11-22T22:57:27.197Z,13.93
2023-11-22T22:59:55.408Z,14.17
2023-11-22T23:02:23.881Z,13.80
2023-11-22T23:04:54.291Z,13.23
2023-11-22T23:07:23.576Z,14.40
2023-11-22T23:09:51.815Z,14.07
2023-11-22T23:12:21.369Z,14.10
2023-11-22T23:14:50.318Z,14.30
2023-11-22T23:17:18.739Z,14.23
2023-11-22T23:19:47.659Z,15.10
2023-11-22T23:22:15.933Z,15.80
2023-11-22T23:24:44.234Z,15.87
2023-11-22T23:27:12.564Z,15.13
2023-11-22T23:29:42.854Z,15.97
2023-11-22T23:32:11.783Z,15.00
2023-11-22T23:34:40.871Z,15.73
2023-11-22T23:37:09.697Z,15.90
2023-11-22T23:39:38.012Z,15.03
2023-11-22T23:42:14.048Z,16.03
2023-11-22T23:44:44.514Z,15.53
2023-11-22T23:47:12.895Z,15.47
2023-11-22T23:49:41.163Z,15.70
2023-11-22T23:52:09.496Z,16.10
2023-11-22T23:54:38.280Z,16.17
2023-11-22T23:57:06.853Z,15.53
2023-11-22T23:59:35.935Z,15.37
